Time;durP1;ratioP1;P1;durP2;ratioP2;P2;SDS_P1;SDS_P2;PMS_P1;PMS_P2;Temp;Humidity;BMP_temperature;BMP_pressure;BME280_temperature;BME280_humidity;BME280_pressure;Samples;Min_cycle;Max_cycle;Signal;HPM_P1;HPM_P2
2021/12/24 00:19:00;;;;;;;11.40;9.05;;;;;;;;;;4760388;27;20099;-68
2021/12/24 00:37:22;;;;;;;12.95;8.95;;;;;;;;;;4289713;33;20440;-70
2021/12/24 00:40:11;;;;;;;12.40;9.70;;;;;;;;;;4289257;33;20167;-70
2021/12/24 00:42:39;;;;;;;14.43;11.70;;;;;;;;;;4267612;33;20466;-68
2021/12/24 00:45:06;;;;;;;14.55;11.57;;;;;;;;;;4277524;33;20106;-71
2021/12/24 00:47:32;;;;;;;12.57;10.05;;;;;;;;;;4290938;33;20092;-66
2021/12/24 00:50:00;;;;;;;12.57;8.75;;;;;;;;;;4277092;33;20112;-66
2021/12/24 00:55:06;;;;;;;10.85;8.02;;;;;;;;;;4290442;33;20143;-66
2021/12/24 00:57:38;;;;;;;11.77;8.95;;;;;;;;;;4290707;33;20128;-66
2021/12/24 01:00:07;;;;;;;12.37;8.68;;;;;;;;;;4277094;33;20116;-70
2021/12/24 01:02:33;;;;;;;11.40;8.55;;;;;;;;;;4289367;33;20087;-70
2021/12/24 01:04:59;;;;;;;12.00;9.32;;;;;;;;;;4277178;33;20108;-70
2021/12/24 01:07:25;;;;;;;9.93;8.40;;;;;;;;;;4290469;33;20103;-69
2021/12/24 01:09:51;;;;;;;11.75;8.90;;;;;;;;;;4289083;33;20511;-70
2021/12/24 01:12:17;;;;;;;11.02;8.77;;;;;;;;;;4289970;33;20178;-71
2021/12/24 01:14:47;;;;;;;15.02;8.80;;;;;;;;;;4289955;33;20119;-69
2021/12/24 01:19:42;;;;;;;9.85;8.13;;;;;;;;;;4289079;33;20091;-69
2021/12/24 01:22:56;;;;;;;10.65;8.32;;;;;;;;;;4290276;33;20103;-70
2021/12/24 01:25:15;;;;;;;10.95;7.90;;;;;;;;;;4290199;33;20556;-70
2021/12/24 01:44:27;;;;;;;11.15;8.68;;;;;;;;;;4278997;33;20417;-71
2021/12/24 01:46:58;;;;;;;11.98;7.57;;;;;;;;;;4290187;33;20476;-71
2021/12/24 01:49:24;;;;;;;11.10;8.68;;;;;;;;;;4276918;33;20188;-71
2021/12/24 01:51:51;;;;;;;12.82;8.15;;;;;;;;;;4290091;33;20546;-70
2021/12/24 01:54:18;;;;;;;11.12;8.32;;;;;;;;;;4276522;33;20535;-71
2021/12/24 01:56:45;;;;;;;9.13;7.80;;;;;;;;;;4264812;33;20535;-71
2021/12/24 01:59:11;;;;;;;13.00;7.85;;;;;;;;;;4289805;33;20103;-71
2021/12/24 02:01:37;;;;;;;11.15;7.80;;;;;;;;;;4276626;33;20126;-71
2021/12/24 02:04:03;;;;;;;10.43;8.63;;;;;;;;;;4289832;33;20119;-71
2021/12/24 02:06:30;;;;;;;10.02;8.40;;;;;;;;;;4276674;33;20131;-71
2021/12/24 02:08:56;;;;;;;10.20;8.23;;;;;;;;;;4276927;33;20178;-71
2021/12/24 02:11:23;;;;;;;10.73;8.23;;;;;;;;;;4276909;33;20190;-71
2021/12/24 02:13:49;;;;;;;12.82;8.95;;;;;;;;;;4290046;33;20458;-71
2021/12/24 02:29:55;;;;;;;10.50;8.25;;;;;;;;;;4278650;33;20443;-70
2021/12/24 02:32:21;;;;;;;11.90;8.13;;;;;;;;;;4289644;33;20127;-70
2021/12/24 02:34:47;;;;;;;10.95;8.13;;;;;;;;;;4288131;33;20467;-70
2021/12/24 02:37:14;;;;;;;10.90;7.95;;;;;;;;;;4289622;33;20533;-70
2021/12/24 02:39:40;;;;;;;9.95;8.13;;;;;;;;;;4289637;33;20107;-70
2021/12/24 02:42:15;;;;;;;10.73;7.75;;;;;;;;;;4289602;33;20179;-70
2021/12/24 02:44:41;;;;;;;9.50;7.72;;;;;;;;;;4289505;33;20151;-70
2021/12/24 02:47:53;;;;;;;10.02;8.13;;;;;;;;;;4276142;33;20570;-75
2021/12/24 02:55:32;;;;;;;9.55;8.18;;;;;;;;;;4288296;33;20191;-72
2021/12/24 02:57:59;;;;;;;11.90;9.65;;;;;;;;;;4289634;33;20528;-71
2021/12/24 03:00:26;;;;;;;12.15;8.98;;;;;;;;;;4264071;33;20095;-72
2021/12/24 03:02:53;;;;;;;10.82;8.02;;;;;;;;;;4276162;33;20115;-73
2021/12/24 03:05:20;;;;;;;11.55;8.50;;;;;;;;;;4276138;33;20194;-72
2021/12/24 03:07:47;;;;;;;9.70;8.35;;;;;;;;;;4289378;33;20108;-72
2021/12/24 03:10:17;;;;;;;9.93;8.18;;;;;;;;;;4276076;33;20187;-72
2021/12/24 03:12:51;;;;;;;12.43;8.32;;;;;;;;;;4276045;33;20575;-72
2021/12/24 03:15:18;;;;;;;9.95;8.45;;;;;;;;;;4276188;33;20128;-72
2021/12/24 03:17:50;;;;;;;9.77;8.45;;;;;;;;;;4275986;33;20099;-72
2021/12/24 03:20:16;;;;;;;11.35;9.00;;;;;;;;;;4276634;33;20111;-72
2021/12/24 03:25:27;;;;;;;11.82;9.18;;;;;;;;;;4277720;33;20187;-72
2021/12/24 03:27:53;;;;;;;12.32;8.52;;;;;;;;;;4276106;33;20120;-70
2021/12/24 03:30:19;;;;;;;10.55;9.02;;;;;;;;;;4289030;33;20630;-71
2021/12/24 03:32:45;;;;;;;9.20;8.00;;;;;;;;;;4289044;33;20102;-70
2021/12/24 03:35:11;;;;;;;11.82;8.75;;;;;;;;;;4288832;33;20104;-70
2021/12/24 03:37:37;;;;;;;9.52;7.53;;;;;;;;;;4288416;33;20447;-72
2021/12/24 03:40:04;;;;;;;13.05;8.98;;;;;;;;;;4288696;33;20126;-71
2021/12/24 03:42:31;;;;;;;10.68;8.55;;;;;;;;;;4274406;33;20111;-68
2021/12/24 03:45:09;;;;;;;12.52;8.82;;;;;;;;;;4274590;33;20170;-70
2021/12/24 03:47:39;;;;;;;10.40;8.45;;;;;;;;;;4276916;33;20131;-71
2021/12/24 03:50:10;;;;;;;9.48;8.07;;;;;;;;;;4288892;33;20106;-71
2021/12/24 03:53:00;;;;;;;11.57;7.80;;;;;;;;;;4264024;33;20124;-71
2021/12/24 03:55:22;;;;;;;;;;;;;;;;;;4275712;33;20196;-72
2021/12/24 03:57:48;;;;;;;10.73;8.90;;;;;;;;;;4287454;33;19994;-69
2021/12/24 04:00:23;;;;;;;10.32;8.52;;;;;;;;;;4288733;33;20119;-74
2021/12/24 04:02:49;;;;;;;10.57;8.05;;;;;;;;;;4275774;33;20103;-74
2021/12/24 04:05:16;;;;;;;10.52;8.50;;;;;;;;;;4275471;33;20462;-73
2021/12/24 04:07:42;;;;;;;12.25;8.25;;;;;;;;;;4275466;33;20127;-71
2021/12/24 04:12:44;;;;;;;9.57;8.48;;;;;;;;;;4288651;33;20111;-71
2021/12/24 04:15:10;;;;;;;12.23;8.65;;;;;;;;;;4288618;33;20100;-72
2021/12/24 04:17:39;;;;;;;10.68;8.10;;;;;;;;;;4275095;33;20116;-70
2021/12/24 04:25:34;;;;;;;11.38;8.90;;;;;;;;;;4288612;33;20586;-72
2021/12/24 04:28:00;;;;;;;9.93;8.38;;;;;;;;;;4275310;33;20096;-70
2021/12/24 04:30:35;;;;;;;12.55;8.45;;;;;;;;;;4263099;33;20116;-72
2021/12/24 04:33:07;;;;;;;11.52;8.77;;;;;;;;;;4288546;33;20159;-71
2021/12/24 04:51:30;;;;;;;11.90;8.35;;;;;;;;;;4279502;33;20201;-70
2021/12/24 05:02:37;;;;;;;9.20;7.85;;;;;;;;;;4273395;33;20098;-70
2021/12/24 05:05:20;;;;;;;12.35;9.35;;;;;;;;;;4290443;33;20131;-72
2021/12/24 05:10:21;;;;;;;11.02;8.88;;;;;;;;;;4290452;33;20147;-71
2021/12/24 05:12:47;;;;;;;11.18;8.77;;;;;;;;;;4277281;33;20107;-70
2021/12/24 05:15:13;;;;;;;12.25;10.27;;;;;;;;;;4277223;33;20225;-71
2021/12/24 05:23:08;;;;;;;9.95;8.32;;;;;;;;;;4290218;33;20095;-71
2021/12/24 05:25:42;;;;;;;11.52;9.07;;;;;;;;;;4290483;33;20186;-71
2021/12/24 05:28:08;;;;;;;10.65;9.02;;;;;;;;;;4290339;33;20206;-70
2021/12/24 05:30:34;;;;;;;12.07;8.02;;;;;;;;;;4290120;33;20115;-71
2021/12/24 05:33:00;;;;;;;10.98;8.65;;;;;;;;;;4278344;33;20471;-72
2021/12/24 05:35:26;;;;;;;10.15;8.07;;;;;;;;;;4290907;33;20112;-71
2021/12/24 05:37:52;;;;;;;10.63;8.88;;;;;;;;;;4288888;33;20130;-69
2021/12/24 05:40:18;;;;;;;10.00;7.97;;;;;;;;;;4276836;33;20641;-69
2021/12/24 05:42:44;;;;;;;10.27;7.57;;;;;;;;;;4290230;33;20096;-68
2021/12/24 05:45:10;;;;;;;11.48;8.50;;;;;;;;;;4290017;33;20108;-67
2021/12/24 05:47:37;;;;;;;9.32;8.02;;;;;;;;;;4290219;33;20116;-67
2021/12/24 05:50:05;;;;;;;10.50;8.18;;;;;;;;;;4288555;33;20214;-68
2021/12/24 05:52:33;;;;;;;10.25;7.78;;;;;;;;;;4276565;33;20217;-70
2021/12/24 05:54:59;;;;;;;12.15;8.98;;;;;;;;;;4276913;33;20112;-69
2021/12/24 05:57:27;;;;;;;12.73;8.52;;;;;;;;;;4276895;33;20131;-68
2021/12/24 05:59:53;;;;;;;9.32;8.27;;;;;;;;;;4288125;33;20509;-69
2021/12/24 06:02:19;;;;;;;13.07;8.85;;;;;;;;;;4276475;33;20103;-68
2021/12/24 06:04:45;;;;;;;9.93;8.13;;;;;;;;;;4276866;33;20107;-69
2021/12/24 06:07:11;;;;;;;9.35;8.07;;;;;;;;;;4289866;33;20178;-69
2021/12/24 06:09:38;;;;;;;11.77;8.70;;;;;;;;;;4276840;33;20540;-70
2021/12/24 06:12:04;;;;;;;10.38;8.30;;;;;;;;;;4276518;33;20131;-69
2021/12/24 06:14:30;;;;;;;10.50;7.90;;;;;;;;;;4288320;33;20183;-69
2021/12/24 06:17:02;;;;;;;10.82;8.38;;;;;;;;;;4289816;33;20511;-68
2021/12/24 06:19:29;;;;;;;10.73;7.90;;;;;;;;;;4277082;33;20108;-68
2021/12/24 06:21:58;;;;;;;10.70;7.95;;;;;;;;;;4264261;33;20510;-68
2021/12/24 06:24:25;;;;;;;11.02;8.32;;;;;;;;;;4276404;33;20118;-69
2021/12/24 06:26:51;;;;;;;14.52;10.38;;;;;;;;;;4289993;33;20452;-68
2021/12/24 06:29:17;;;;;;;15.77;13.57;;;;;;;;;;4276443;33;20080;-69
2021/12/24 06:31:44;;;;;;;12.65;9.20;;;;;;;;;;4289672;33;20178;-68
2021/12/24 06:34:10;;;;;;;9.90;8.48;;;;;;;;;;4276565;33;20108;-70
2021/12/24 06:36:40;;;;;;;10.80;9.05;;;;;;;;;;4276169;33;20134;-70
2021/12/24 06:39:07;;;;;;;12.75;8.80;;;;;;;;;;4264692;33;20123;-71
2021/12/24 06:41:33;;;;;;;12.68;9.38;;;;;;;;;;4276220;33;20491;-70
2021/12/24 06:44:01;;;;;;;10.90;8.52;;;;;;;;;;4264740;33;20100;-71
2021/12/24 06:46:27;;;;;;;12.18;9.57;;;;;;;;;;4264188;33;20112;-70
2021/12/24 06:48:56;;;;;;;12.10;9.38;;;;;;;;;;4264514;33;20092;-71
2021/12/24 06:51:23;;;;;;;12.15;9.50;;;;;;;;;;4289453;33;20115;-71
2021/12/24 06:53:49;;;;;;;11.10;9.60;;;;;;;;;;4289642;33;20102;-70
2021/12/24 06:56:15;;;;;;;10.35;9.20;;;;;;;;;;4276087;33;20310;-70
2021/12/24 06:58:41;;;;;;;10.48;8.70;;;;;;;;;;4264354;33;20127;-70
2021/12/24 07:01:08;;;;;;;10.25;8.60;;;;;;;;;;4289726;33;20203;-69
2021/12/24 07:03:34;;;;;;;10.20;8.25;;;;;;;;;;4287859;33;20203;-70
2021/12/24 07:06:00;;;;;;;12.02;8.95;;;;;;;;;;4288090;33;20112;-71
2021/12/24 07:08:26;;;;;;;9.93;8.43;;;;;;;;;;4289637;33;20467;-72
2021/12/24 07:10:52;;;;;;;13.35;9.80;;;;;;;;;;4287216;33;20111;-72
2021/12/24 07:13:19;;;;;;;10.70;8.95;;;;;;;;;;4264201;33;20108;-69
2021/12/24 07:15:45;;;;;;;12.02;8.80;;;;;;;;;;4287665;33;20095;-69
2021/12/24 07:18:11;;;;;;;10.77;8.00;;;;;;;;;;4289079;33;20111;-69
2021/12/24 07:20:37;;;;;;;10.07;8.35;;;;;;;;;;4275622;33;20221;-69
2021/12/24 07:23:04;;;;;;;9.45;8.18;;;;;;;;;;4275761;33;20120;-67
2021/12/24 07:25:30;;;;;;;11.25;8.52;;;;;;;;;;4276084;33;20484;-67
2021/12/24 07:27:56;;;;;;;11.40;8.95;;;;;;;;;;4275667;33;20123;-70
2021/12/24 07:30:22;;;;;;;11.43;8.60;;;;;;;;;;4275966;33;20202;-68
2021/12/24 07:32:49;;;;;;;10.82;8.52;;;;;;;;;;4275703;33;20115;-69
2021/12/24 07:35:15;;;;;;;12.60;9.25;;;;;;;;;;4275508;33;20087;-69
2021/12/24 07:37:42;;;;;;;12.50;8.82;;;;;;;;;;4263575;33;20122;-70
2021/12/24 07:40:09;;;;;;;11.05;9.25;;;;;;;;;;4263963;33;20131;-69
2021/12/24 07:42:36;;;;;;;12.02;8.75;;;;;;;;;;4263577;33;20523;-68
2021/12/24 07:45:05;;;;;;;9.88;8.65;;;;;;;;;;4275573;33;20108;-69
2021/12/24 07:47:36;;;;;;;10.73;8.93;;;;;;;;;;4288954;33;20170;-69
2021/12/24 07:50:16;;;;;;;11.30;8.70;;;;;;;;;;4276211;33;20197;-69
2021/12/24 07:52:43;;;;;;;10.90;9.27;;;;;;;;;;4275091;33;20198;-67
2021/12/24 07:55:10;;;;;;;10.93;8.48;;;;;;;;;;4275358;33;20217;-69
2021/12/24 07:57:37;;;;;;;11.18;8.52;;;;;;;;;;4263696;33;20175;-71
2021/12/24 08:00:06;;;;;;;14.48;8.77;;;;;;;;;;4288660;33;20123;-70
2021/12/24 08:02:32;;;;;;;11.52;9.10;;;;;;;;;;4288455;33;20210;-70
2021/12/24 08:04:58;;;;;;;9.73;8.52;;;;;;;;;;4287157;33;20127;-71
2021/12/24 08:07:24;;;;;;;10.18;8.40;;;;;;;;;;4287298;33;20108;-68
2021/12/24 08:09:51;;;;;;;10.35;8.05;;;;;;;;;;4287349;33;20518;-69
2021/12/24 08:12:18;;;;;;;10.95;8.15;;;;;;;;;;4275210;33;20083;-68
2021/12/24 08:14:45;;;;;;;10.75;8.05;;;;;;;;;;4288567;33;20219;-69
2021/12/24 08:17:11;;;;;;;13.23;8.52;;;;;;;;;;4288330;33;20115;-67
2021/12/24 08:19:37;;;;;;;11.00;8.82;;;;;;;;;;4275186;33;20210;-69
2021/12/24 08:22:04;;;;;;;9.80;7.93;;;;;;;;;;4288650;33;20167;-70
2021/12/24 08:24:30;;;;;;;9.88;7.75;;;;;;;;;;4275457;33;20131;-69
2021/12/24 08:26:57;;;;;;;9.68;8.27;;;;;;;;;;4275918;33;20108;-69
2021/12/24 08:29:23;;;;;;;11.20;8.65;;;;;;;;;;4276003;33;20467;-67
2021/12/24 08:31:50;;;;;;;10.10;8.63;;;;;;;;;;4289451;33;20440;-69
2021/12/24 08:34:18;;;;;;;11.98;8.63;;;;;;;;;;4277238;33;20119;-69
2021/12/24 08:36:46;;;;;;;11.32;8.70;;;;;;;;;;4277312;33;20532;-68
2021/12/24 08:39:12;;;;;;;13.50;9.07;;;;;;;;;;4277146;33;20123;-70
2021/12/24 08:41:38;;;;;;;10.57;8.85;;;;;;;;;;4262909;33;20232;-70
2021/12/24 08:44:05;;;;;;;11.45;8.68;;;;;;;;;;4285461;33;20787;-69
2021/12/24 08:46:33;;;;;;;11.52;10.27;;;;;;;;;;4276817;33;20092;-69
2021/12/24 08:48:59;;;;;;;9.73;8.45;;;;;;;;;;4274320;33;20142;-69
2021/12/24 08:51:25;;;;;;;11.50;8.80;;;;;;;;;;4275843;33;20588;-69
2021/12/24 08:53:51;;;;;;;10.18;8.13;;;;;;;;;;4275914;33;20116;-69
2021/12/24 08:56:17;;;;;;;8.90;8.00;;;;;;;;;;4262854;33;20111;-70
2021/12/24 08:58:43;;;;;;;11.65;8.48;;;;;;;;;;4274506;33;20108;-68
2021/12/24 09:01:09;;;;;;;10.45;8.80;;;;;;;;;;4262481;33;20182;-68
2021/12/24 09:03:35;;;;;;;10.30;8.63;;;;;;;;;;4275852;33;20096;-69
2021/12/24 09:06:01;;;;;;;10.68;8.32;;;;;;;;;;4274522;33;20088;-68
2021/12/24 09:08:27;;;;;;;11.70;8.65;;;;;;;;;;4275978;33;20107;-69
2021/12/24 09:10:53;;;;;;;13.20;8.95;;;;;;;;;;4275881;33;20426;-68
2021/12/24 09:13:19;;;;;;;10.00;8.18;;;;;;;;;;4262764;33;20093;-68
2021/12/24 09:15:45;;;;;;;10.82;8.48;;;;;;;;;;4262734;33;20488;-69
2021/12/24 09:18:12;;;;;;;11.27;9.07;;;;;;;;;;4261268;33;20528;-69
2021/12/24 09:20:42;;;;;;;9.95;8.40;;;;;;;;;;4280661;33;20182;-70
2021/12/24 09:23:09;;;;;;;10.57;8.52;;;;;;;;;;4275544;33;20226;-69
2021/12/24 09:25:35;;;;;;;11.20;9.45;;;;;;;;;;4264479;33;20587;-70
2021/12/24 09:28:02;;;;;;;10.75;8.65;;;;;;;;;;4276411;33;20111;-69
2021/12/24 09:30:29;;;;;;;10.38;8.05;;;;;;;;;;4264480;33;20463;-70
2021/12/24 09:32:55;;;;;;;10.73;8.65;;;;;;;;;;4289151;33;20142;-69
2021/12/24 09:35:22;;;;;;;9.55;8.10;;;;;;;;;;4303458;33;20096;-70
2021/12/24 09:37:48;;;;;;;9.98;8.25;;;;;;;;;;4278637;33;20095;-70
2021/12/24 09:40:15;;;;;;;10.35;7.70;;;;;;;;;;4304332;33;20127;-70
2021/12/24 09:42:41;;;;;;;10.93;8.27;;;;;;;;;;4291102;33;20087;-70
2021/12/24 09:45:08;;;;;;;10.15;7.57;;;;;;;;;;4278583;33;20209;-71
2021/12/24 09:47:35;;;;;;;9.65;8.50;;;;;;;;;;4291227;33;20130;-71
2021/12/24 09:50:01;;;;;;;10.93;8.32;;;;;;;;;;4290572;33;20120;-71
2021/12/24 09:52:27;;;;;;;10.93;7.95;;;;;;;;;;4271299;33;20108;-72
2021/12/24 09:54:53;;;;;;;10.10;8.45;;;;;;;;;;4272733;33;20104;-72
2021/12/24 09:57:20;;;;;;;10.00;8.52;;;;;;;;;;4261920;33;20529;-72
2021/12/24 09:59:46;;;;;;;11.12;8.63;;;;;;;;;;4261696;33;20116;-71
2021/12/24 10:02:17;;;;;;;10.50;8.68;;;;;;;;;;4273825;33;20206;-71
2021/12/24 10:04:44;;;;;;;9.70;8.30;;;;;;;;;;4297863;33;20118;-70
2021/12/24 10:07:20;;;;;;;10.68;8.63;;;;;;;;;;4304231;33;20127;-72
2021/12/24 10:09:49;;;;;;;10.32;8.38;;;;;;;;;;4290954;33;20160;-70
2021/12/24 10:12:23;;;;;;;10.95;8.73;;;;;;;;;;4278823;33;20193;-72
2021/12/24 10:14:51;;;;;;;10.20;8.02;;;;;;;;;;4290246;33;20115;-71
2021/12/24 10:17:19;;;;;;;9.43;8.15;;;;;;;;;;4278621;33;20478;-70
2021/12/24 10:19:49;;;;;;;10.27;9.18;;;;;;;;;;4278015;33;20537;-71
2021/12/24 10:22:16;;;;;;;10.93;8.95;;;;;;;;;;4261845;33;20124;-73
2021/12/24 10:24:42;;;;;;;11.48;8.57;;;;;;;;;;4264119;33;20091;-73
2021/12/24 10:27:09;;;;;;;9.10;7.43;;;;;;;;;;4275388;33;20468;-71
2021/12/24 10:29:38;;;;;;;9.50;7.90;;;;;;;;;;4284229;33;20118;-71
2021/12/24 10:32:11;;;;;;;9.00;8.10;;;;;;;;;;4276290;33;20154;-72
2021/12/24 10:34:37;;;;;;;11.45;8.50;;;;;;;;;;4286121;33;20127;-72
2021/12/24 10:37:05;;;;;;;10.90;8.15;;;;;;;;;;4289886;33;20214;-71
2021/12/24 10:39:45;;;;;;;9.82;7.97;;;;;;;;;;4303522;33;20096;-71
2021/12/24 10:42:13;;;;;;;10.80;8.75;;;;;;;;;;4290058;33;20142;-73
2021/12/24 10:44:40;;;;;;;11.12;8.50;;;;;;;;;;4289950;33;20206;-73
2021/12/24 10:47:22;;;;;;;10.48;8.32;;;;;;;;;;4266208;33;20100;-71
2021/12/24 10:55:23;;;;;;;10.00;8.05;;;;;;;;;;4285599;33;20464;-71
2021/12/24 10:57:54;;;;;;;10.85;8.80;;;;;;;;;;4274530;33;20233;-71
2021/12/24 11:00:30;;;;;;;10.18;8.38;;;;;;;;;;4288955;33;20118;-72
2021/12/24 11:03:06;;;;;;;11.05;8.48;;;;;;;;;;4288549;33;20196;-70
2021/12/24 11:05:35;;;;;;;10.23;7.93;;;;;;;;;;4288496;33;20534;-69
2021/12/24 11:08:03;;;;;;;10.02;8.65;;;;;;;;;;4288491;33;20686;-73
2021/12/24 11:10:32;;;;;;;10.02;8.65;;;;;;;;;;4288828;33;20285;-72
2021/12/24 11:13:07;;;;;;;10.07;8.63;;;;;;;;;;4302255;33;20121;-71
2021/12/24 11:15:38;;;;;;;13.15;9.40;;;;;;;;;;4278675;33;20532;-72
2021/12/24 11:18:08;;;;;;;14.77;11.38;;;;;;;;;;4277212;33;20523;-71
2021/12/24 11:20:35;;;;;;;10.27;9.18;;;;;;;;;;4285239;33;20127;-69
2021/12/24 11:23:09;;;;;;;12.37;9.18;;;;;;;;;;4288684;33;20115;-73
2021/12/24 11:25:39;;;;;;;11.02;8.77;;;;;;;;;;4275760;33;20104;-72
2021/12/24 11:28:07;;;;;;;13.20;8.65;;;;;;;;;;4287336;33;20115;-72
2021/12/24 11:30:35;;;;;;;12.70;9.30;;;;;;;;;;4289613;33;20193;-71
2021/12/24 11:33:02;;;;;;;11.50;9.10;;;;;;;;;;4289480;33;20103;-72
2021/12/24 11:35:29;;;;;;;10.90;9.02;;;;;;;;;;4277661;33;20115;-72
2021/12/24 11:37:55;;;;;;;12.25;8.88;;;;;;;;;;4303209;33;20119;-72
2021/12/24 11:40:24;;;;;;;14.85;9.52;;;;;;;;;;4289447;33;20119;-73
2021/12/24 11:43:00;;;;;;;12.73;9.48;;;;;;;;;;4289962;33;20096;-72
2021/12/24 11:45:28;;;;;;;10.40;8.93;;;;;;;;;;4289758;33;20103;-72
2021/12/24 11:47:54;;;;;;;11.68;9.82;;;;;;;;;;4289407;33;20103;-71
2021/12/24 11:50:22;;;;;;;11.90;8.80;;;;;;;;;;4302393;33;20121;-69
2021/12/24 11:52:50;;;;;;;11.45;9.95;;;;;;;;;;4267831;33;20215;-69
2021/12/24 11:55:17;;;;;;;11.32;9.80;;;;;;;;;;4275226;33;20108;-70
2021/12/24 11:57:53;;;;;;;10.77;9.23;;;;;;;;;;4265695;33;20111;-70
2021/12/24 12:00:32;;;;;;;;;;;;;;;;;;4289986;33;20515;-70
2021/12/24 12:02:58;;;;;;;13.15;9.45;;;;;;;;;;4289432;33;20045;-70
2021/12/24 12:05:35;;;;;;;11.52;10.02;;;;;;;;;;4289534;33;20107;-69
2021/12/24 12:08:23;;;;;;;10.88;9.10;;;;;;;;;;4277467;33;20199;-71
2021/12/24 12:10:53;;;;;;;11.88;9.93;;;;;;;;;;4280650;33;20108;-72
2021/12/24 12:13:48;;;;;;;10.15;9.05;;;;;;;;;;4261577;33;20499;-71
2021/12/24 12:16:18;;;;;;;13.50;9.73;;;;;;;;;;4273054;33;20774;-71
2021/12/24 12:18:50;;;;;;;10.68;9.15;;;;;;;;;;4288258;33;20126;-71
2021/12/24 12:21:20;;;;;;;10.30;8.82;;;;;;;;;;4287082;33;20123;-69
2021/12/24 12:26:36;;;;;;;12.77;11.15;;;;;;;;;;4275581;33;20111;-72
2021/12/24 12:29:22;;;;;;;13.07;9.95;;;;;;;;;;4263162;33;20218;-70
2021/12/24 12:32:08;;;;;;;;;;;;;;;;;;4275803;33;20178;-72
2021/12/24 12:34:42;;;;;;;13.38;10.30;;;;;;;;;;4273541;33;19990;-69
2021/12/24 12:37:21;;;;;;;13.88;11.52;;;;;;;;;;4275054;33;20197;-72
2021/12/24 12:39:50;;;;;;;13.57;10.60;;;;;;;;;;4261928;33;20112;-70
2021/12/24 12:42:17;;;;;;;12.95;10.85;;;;;;;;;;4274908;33;20621;-71
2021/12/24 12:44:52;;;;;;;13.30;10.75;;;;;;;;;;4275146;33;20447;-69
2021/12/24 12:47:22;;;;;;;14.65;11.32;;;;;;;;;;4275361;33;20124;-70
2021/12/24 12:49:49;;;;;;;12.82;11.15;;;;;;;;;;4275044;33;20096;-74
2021/12/24 12:52:22;;;;;;;15.15;12.27;;;;;;;;;;4275117;33;20195;-68
2021/12/24 12:54:50;;;;;;;15.80;12.07;;;;;;;;;;4275031;33;20092;-68
2021/12/24 12:57:27;;;;;;;13.10;11.63;;;;;;;;;;4288149;33;20119;-67
2021/12/24 13:00:12;;;;;;;14.50;12.18;;;;;;;;;;4275027;33;20112;-69
2021/12/24 13:02:56;;;;;;;14.73;11.38;;;;;;;;;;4263140;33;20116;-70
2021/12/24 13:05:43;;;;;;;15.15;11.27;;;;;;;;;;4274630;33;20123;-69
2021/12/24 13:08:11;;;;;;;13.13;11.73;;;;;;;;;;4282346;33;20197;-70
2021/12/24 13:10:37;;;;;;;15.02;12.20;;;;;;;;;;4276661;33;20100;-69
2021/12/24 13:13:05;;;;;;;14.45;12.63;;;;;;;;;;4276899;33;20119;-72
2021/12/24 13:15:33;;;;;;;15.95;13.07;;;;;;;;;;4279361;33;20190;-71
2021/12/24 13:18:05;;;;;;;14.23;12.55;;;;;;;;;;4303794;33;20134;-73
2021/12/24 13:20:45;;;;;;;14.80;12.85;;;;;;;;;;4285763;33;20107;-70
2021/12/24 13:23:19;;;;;;;16.87;12.43;;;;;;;;;;4285777;33;20113;-72
2021/12/24 13:25:45;;;;;;;14.63;12.52;;;;;;;;;;4291438;33;20103;-69
2021/12/24 13:28:12;;;;;;;16.48;14.25;;;;;;;;;;4279536;33;20139;-69
2021/12/24 13:30:38;;;;;;;16.45;14.18;;;;;;;;;;4289333;33;20214;-70
2021/12/24 13:33:07;;;;;;;16.62;13.15;;;;;;;;;;4282360;33;20124;-72
2021/12/24 13:35:42;;;;;;;16.95;13.85;;;;;;;;;;4269668;33;20471;-70
2021/12/24 13:38:12;;;;;;;16.33;14.38;;;;;;;;;;4292983;33;20119;-68
2021/12/24 13:40:38;;;;;;;16.35;14.15;;;;;;;;;;4287420;33;20123;-70
2021/12/24 13:43:12;;;;;;;18.15;14.93;;;;;;;;;;4289496;33;20143;-70
2021/12/24 13:45:40;;;;;;;15.05;13.02;;;;;;;;;;4276226;33;20214;-72
2021/12/24 13:48:11;;;;;;;16.62;14.10;;;;;;;;;;4301305;33;20279;-70
2021/12/24 13:54:41;;;;;;;18.30;14.70;;;;;;;;;;4288968;33;20089;-69
2021/12/24 13:56:39;;;;;;;17.17;13.85;;;;;;;;;;4268119;33;20124;-72
2021/12/24 13:59:06;;;;;;;18.73;14.38;;;;;;;;;;4287768;33;20123;-69
2021/12/24 14:01:33;;;;;;;15.40;12.27;;;;;;;;;;4273861;33;20103;-69
2021/12/24 14:04:00;;;;;;;17.87;14.50;;;;;;;;;;4264354;33;20199;-75
2021/12/24 14:06:36;;;;;;;19.70;16.77;;;;;;;;;;4273520;33;20099;-73
2021/12/24 14:09:11;;;;;;;18.35;15.48;;;;;;;;;;4273647;33;20134;-72
2021/12/24 14:11:38;;;;;;;16.92;11.98;;;;;;;;;;4290620;33;20616;-70
2021/12/24 14:14:14;;;;;;;13.07;10.48;;;;;;;;;;4288375;33;20423;-71
2021/12/24 14:19:32;;;;;;;19.27;16.95;;;;;;;;;;4275784;33;20458;-77
2021/12/24 14:22:10;;;;;;;18.62;16.48;;;;;;;;;;4289069;33;20531;-70
2021/12/24 14:24:36;;;;;;;18.73;15.63;;;;;;;;;;4264468;33;20511;-69
2021/12/24 14:27:07;;;;;;;18.05;15.43;;;;;;;;;;4264267;33;20242;-70
2021/12/24 14:29:42;;;;;;;14.52;13.02;;;;;;;;;;4264348;33;20126;-71
2021/12/24 14:32:14;;;;;;;15.40;13.20;;;;;;;;;;4288380;33;20111;-71
2021/12/24 14:34:44;;;;;;;16.67;13.65;;;;;;;;;;4288292;33;20131;-72
2021/12/24 14:37:24;;;;;;;16.37;12.45;;;;;;;;;;4285593;33;20112;-72
2021/12/24 14:39:56;;;;;;;12.88;11.38;;;;;;;;;;4288142;33;20471;-71
2021/12/24 14:42:25;;;;;;;12.77;11.48;;;;;;;;;;4276496;33;20122;-71
2021/12/24 14:44:55;;;;;;;13.60;11.32;;;;;;;;;;4276609;33;20143;-70
2021/12/24 14:47:25;;;;;;;14.10;12.30;;;;;;;;;;4289840;33;20111;-71
2021/12/24 14:50:00;;;;;;;14.70;11.48;;;;;;;;;;4276481;33;20096;-71
2021/12/24 14:52:27;;;;;;;11.93;10.77;;;;;;;;;;4264640;33;20219;-71
2021/12/24 14:55:11;;;;;;;13.85;11.25;;;;;;;;;;4276183;33;20649;-70
2021/12/24 14:58:00;;;;;;;14.30;11.90;;;;;;;;;;4277879;33;20111;-72
2021/12/24 15:00:37;;;;;;;13.75;12.13;;;;;;;;;;4278063;33;20270;-72
2021/12/24 15:03:06;;;;;;;13.77;12.27;;;;;;;;;;4264237;33;20216;-71
2021/12/24 15:05:35;;;;;;;14.60;13.07;;;;;;;;;;4276308;33;20144;-71
2021/12/24 15:08:16;;;;;;;14.52;12.98;;;;;;;;;;4264398;33;20108;-71
2021/12/24 15:11:21;;;;;;;14.55;12.23;;;;;;;;;;4264044;33;20531;-70
2021/12/24 15:13:47;;;;;;;13.95;12.55;;;;;;;;;;4246604;33;20637;-71
2021/12/24 15:16:16;;;;;;;15.38;13.77;;;;;;;;;;4283662;33;20189;-71
2021/12/24 15:18:47;;;;;;;13.80;12.25;;;;;;;;;;4276183;33;20222;-73
2021/12/24 15:21:14;;;;;;;15.27;13.07;;;;;;;;;;4276081;33;20119;-72
2021/12/24 15:23:40;;;;;;;15.32;13.15;;;;;;;;;;4276024;33;20452;-72
2021/12/24 15:26:06;;;;;;;13.85;12.45;;;;;;;;;;4275966;33;20092;-72
2021/12/24 15:28:32;;;;;;;14.00;12.40;;;;;;;;;;4289258;33;20263;-72
2021/12/24 15:30:59;;;;;;;13.13;11.75;;;;;;;;;;4289091;33;20115;-72
2021/12/24 15:33:26;;;;;;;13.40;11.65;;;;;;;;;;4286959;33;20116;-72
2021/12/24 15:35:53;;;;;;;13.82;11.88;;;;;;;;;;4275866;33;20113;-72
2021/12/24 15:38:19;;;;;;;15.30;12.65;;;;;;;;;;4287873;33;20207;-73
2021/12/24 15:40:46;;;;;;;15.23;11.70;;;;;;;;;;4276116;33;20217;-71
2021/12/24 15:43:12;;;;;;;13.50;11.73;;;;;;;;;;4289030;33;20115;-73
2021/12/24 15:45:39;;;;;;;13.55;12.05;;;;;;;;;;4289110;33;20099;-72
2021/12/24 15:48:08;;;;;;;14.75;12.00;;;;;;;;;;4276109;33;20139;-66
2021/12/24 15:50:35;;;;;;;12.93;11.57;;;;;;;;;;4288930;33;20104;-68
2021/12/24 15:53:01;;;;;;;15.45;13.25;;;;;;;;;;4275541;33;20558;-69
2021/12/24 15:55:28;;;;;;;13.90;12.05;;;;;;;;;;4263840;33;20126;-69
2021/12/24 15:57:54;;;;;;;18.15;13.75;;;;;;;;;;4288918;33;20124;-67
2021/12/24 16:00:20;;;;;;;14.90;13.23;;;;;;;;;;4288932;33;20142;-66
2021/12/24 16:02:46;;;;;;;15.98;14.25;;;;;;;;;;4288882;33;20102;-67
2021/12/24 16:05:12;;;;;;;15.18;12.82;;;;;;;;;;4288757;33;20119;-68
2021/12/24 16:07:39;;;;;;;17.30;12.82;;;;;;;;;;4288818;33;20530;-67
2021/12/24 16:10:05;;;;;;;15.32;13.40;;;;;;;;;;4288739;33;20110;-68
2021/12/24 16:12:31;;;;;;;15.18;13.57;;;;;;;;;;4288734;33;20126;-68
2021/12/24 16:14:59;;;;;;;14.35;12.85;;;;;;;;;;4289009;33;20103;-68
2021/12/24 16:17:25;;;;;;;14.27;12.73;;;;;;;;;;4288514;33;20150;-67
2021/12/24 16:19:51;;;;;;;13.90;12.40;;;;;;;;;;4288602;33;20541;-68
2021/12/24 16:22:19;;;;;;;13.10;11.50;;;;;;;;;;4288535;33;20108;-70
2021/12/24 16:24:45;;;;;;;13.73;12.32;;;;;;;;;;4287489;33;20100;-69
2021/12/24 16:27:12;;;;;;;13.65;12.30;;;;;;;;;;4275161;33;20511;-68
2021/12/24 16:29:51;;;;;;;12.23;10.70;;;;;;;;;;4288620;33;20432;-68
2021/12/24 16:32:18;;;;;;;13.32;11.90;;;;;;;;;;4275279;33;20116;-67
2021/12/24 16:34:45;;;;;;;13.10;11.70;;;;;;;;;;4275216;33;20103;-67
2021/12/24 16:37:13;;;;;;;13.05;11.75;;;;;;;;;;4286914;33;20119;-68
2021/12/24 16:39:41;;;;;;;13.88;11.82;;;;;;;;;;4288570;33;20112;-68
2021/12/24 16:42:09;;;;;;;13.82;11.55;;;;;;;;;;4288310;33;20112;-68
2021/12/24 16:44:35;;;;;;;13.62;11.40;;;;;;;;;;4277116;33;20210;-65
2021/12/24 16:47:02;;;;;;;13.95;11.60;;;;;;;;;;4289159;33;20131;-68
2021/12/24 16:49:28;;;;;;;13.55;12.25;;;;;;;;;;4277172;33;20103;-68
2021/12/24 16:51:55;;;;;;;12.20;10.90;;;;;;;;;;4289099;33;20107;-67